sim
Sign-in with your pilot id or email,
or register
Callsign
Passwort

Schedule Details

Flight Number: DLH1629 (2)
Departure: Lodz Wladyslaw Reymont Airport (EPLL) at 11:35
Arrival: Munich Airport (EDDM) at 13:00
Route: Lufthansa Passenger Schedule. Enter filed route here before submitting Pirep.

Weather Information
Getting current METAR information for EPLL 251000Z 10007KT 070V140 CAVOK 21/15 Q1000
Getting current METAR information for EDDM 251020Z 26005KT 9999 -RA FEW012 SCT020 BKN040 10/08 Q1002 NOSIG

Schedule Frequency

Route Map